sensor_id;sensor_type;location;lat;lon;timestamp;P1;durP1;ratioP1;P2;durP2;ratioP2
79202;SDS011;68630;42.748;23.278;2023-11-19T00:00:08;10.30;;;2.80;;
79202;SDS011;68630;42.748;23.278;2023-11-19T00:02:40;7.95;;;2.98;;
79202;SDS011;68630;42.748;23.278;2023-11-19T00:05:08;4.97;;;3.22;;
79202;SDS011;68630;42.748;23.278;2023-11-19T00:07:37;8.28;;;3.35;;
79202;SDS011;68630;42.748;23.278;2023-11-19T00:10:14;4.28;;;2.87;;
79202;SDS011;68630;42.748;23.278;2023-11-19T00:12:45;5.60;;;3.50;;
79202;SDS011;68630;42.748;23.278;2023-11-19T00:15:14;5.80;;;3.75;;
79202;SDS011;68630;42.748;23.278;2023-11-19T00:17:47;9.05;;;3.27;;
79202;SDS011;68630;42.748;23.278;2023-11-19T00:20:15;4.67;;;3.12;;
79202;SDS011;68630;42.748;23.278;2023-11-19T00:22:48;4.65;;;2.87;;
79202;SDS011;68630;42.748;23.278;2023-11-19T00:25:19;4.60;;;3.27;;
79202;SDS011;68630;42.748;23.278;2023-11-19T00:27:51;5.28;;;3.27;;
79202;SDS011;68630;42.748;23.278;2023-11-19T00:30:19;6.92;;;3.52;;
79202;SDS011;68630;42.748;23.278;2023-11-19T00:32:46;5.15;;;3.30;;
79202;SDS011;68630;42.748;23.278;2023-11-19T00:35:14;9.15;;;3.27;;
79202;SDS011;68630;42.748;23.278;2023-11-19T00:37:42;4.33;;;3.10;;
79202;SDS011;68630;42.748;23.278;2023-11-19T00:40:11;6.87;;;3.67;;
79202;SDS011;68630;42.748;23.278;2023-11-19T00:42:41;4.42;;;3.10;;
79202;SDS011;68630;42.748;23.278;2023-11-19T00:45:09;5.08;;;3.25;;
79202;SDS011;68630;42.748;23.278;2023-11-19T00:47:38;5.10;;;3.40;;
79202;SDS011;68630;42.748;23.278;2023-11-19T00:50:06;11.33;;;3.60;;
79202;SDS011;68630;42.748;23.278;2023-11-19T00:52:40;5.35;;;3.30;;
79202;SDS011;68630;42.748;23.278;2023-11-19T00:55:07;4.05;;;3.20;;
79202;SDS011;68630;42.748;23.278;2023-11-19T00:57:37;5.92;;;3.12;;
79202;SDS011;68630;42.748;23.278;2023-11-19T01:00:05;4.37;;;2.72;;
79202;SDS011;68630;42.748;23.278;2023-11-19T01:02:47;4.40;;;2.77;;
79202;SDS011;68630;42.748;23.278;2023-11-19T01:05:15;3.77;;;3.02;;
79202;SDS011;68630;42.748;23.278;2023-11-19T01:07:45;7.12;;;2.92;;
79202;SDS011;68630;42.748;23.278;2023-11-19T01:10:12;5.12;;;2.72;;
79202;SDS011;68630;42.748;23.278;2023-11-19T01:12:41;4.50;;;2.98;;
79202;SDS011;68630;42.748;23.278;2023-11-19T01:15:09;6.22;;;2.92;;
79202;SDS011;68630;42.748;23.278;2023-11-19T01:17:38;3.92;;;2.77;;
79202;SDS011;68630;42.748;23.278;2023-11-19T01:20:06;2.92;;;2.25;;
79202;SDS011;68630;42.748;23.278;2023-11-19T01:22:35;4.55;;;2.55;;
79202;SDS011;68630;42.748;23.278;2023-11-19T01:25:03;3.67;;;3.10;;
79202;SDS011;68630;42.748;23.278;2023-11-19T01:27:31;3.58;;;2.85;;
79202;SDS011;68630;42.748;23.278;2023-11-19T01:30:02;4.87;;;3.10;;
79202;SDS011;68630;42.748;23.278;2023-11-19T01:32:31;9.18;;;2.85;;
79202;SDS011;68630;42.748;23.278;2023-11-19T01:34:59;4.42;;;3.00;;
79202;SDS011;68630;42.748;23.278;2023-11-19T01:37:27;7.40;;;3.10;;
79202;SDS011;68630;42.748;23.278;2023-11-19T01:39:54;3.52;;;2.42;;
79202;SDS011;68630;42.748;23.278;2023-11-19T01:42:23;5.60;;;3.08;;
79202;SDS011;68630;42.748;23.278;2023-11-19T01:45:10;10.82;;;2.87;;
79202;SDS011;68630;42.748;23.278;2023-11-19T01:47:26;4.75;;;3.00;;
79202;SDS011;68630;42.748;23.278;2023-11-19T01:49:56;2.95;;;2.20;;
79202;SDS011;68630;42.748;23.278;2023-11-19T01:52:25;6.60;;;2.58;;
79202;SDS011;68630;42.748;23.278;2023-11-19T01:54:53;3.87;;;2.55;;
79202;SDS011;68630;42.748;23.278;2023-11-19T01:57:22;3.77;;;2.42;;
79202;SDS011;68630;42.748;23.278;2023-11-19T01:59:50;3.25;;;2.35;;
79202;SDS011;68630;42.748;23.278;2023-11-19T02:02:20;4.20;;;3.00;;
79202;SDS011;68630;42.748;23.278;2023-11-19T02:04:49;4.58;;;2.65;;
79202;SDS011;68630;42.748;23.278;2023-11-19T02:07:17;3.90;;;2.77;;
79202;SDS011;68630;42.748;23.278;2023-11-19T02:09:46;4.22;;;2.70;;
79202;SDS011;68630;42.748;23.278;2023-11-19T02:12:13;4.40;;;2.80;;
79202;SDS011;68630;42.748;23.278;2023-11-19T02:14:41;4.95;;;2.92;;
79202;SDS011;68630;42.748;23.278;2023-11-19T02:17:24;4.35;;;2.85;;
79202;SDS011;68630;42.748;23.278;2023-11-19T02:20:01;4.62;;;2.85;;
79202;SDS011;68630;42.748;23.278;2023-11-19T02:22:29;16.90;;;2.72;;
79202;SDS011;68630;42.748;23.278;2023-11-19T02:24:58;5.37;;;3.00;;
79202;SDS011;68630;42.748;23.278;2023-11-19T02:27:43;3.30;;;2.72;;
79202;SDS011;68630;42.748;23.278;2023-11-19T02:30:22;4.05;;;2.90;;
79202;SDS011;68630;42.748;23.278;2023-11-19T02:32:59;3.85;;;2.98;;
79202;SDS011;68630;42.748;23.278;2023-11-19T02:35:24;4.10;;;2.95;;
79202;SDS011;68630;42.748;23.278;2023-11-19T02:37:52;5.30;;;2.80;;
79202;SDS011;68630;42.748;23.278;2023-11-19T02:40:21;4.97;;;2.80;;
79202;SDS011;68630;42.748;23.278;2023-11-19T02:42:50;4.53;;;2.98;;
79202;SDS011;68630;42.748;23.278;2023-11-19T02:45:18;5.05;;;3.20;;
79202;SDS011;68630;42.748;23.278;2023-11-19T02:47:47;4.90;;;3.05;;
79202;SDS011;68630;42.748;23.278;2023-11-19T02:50:16;4.40;;;2.77;;
79202;SDS011;68630;42.748;23.278;2023-11-19T02:52:53;4.10;;;2.97;;
79202;SDS011;68630;42.748;23.278;2023-11-19T02:55:22;5.70;;;3.10;;
79202;SDS011;68630;42.748;23.278;2023-11-19T02:57:51;4.83;;;2.45;;
79202;SDS011;68630;42.748;23.278;2023-11-19T03:00:20;8.65;;;2.60;;
79202;SDS011;68630;42.748;23.278;2023-11-19T03:02:52;5.70;;;3.02;;
79202;SDS011;68630;42.748;23.278;2023-11-19T03:05:22;3.05;;;2.40;;
79202;SDS011;68630;42.748;23.278;2023-11-19T03:07:50;4.17;;;2.80;;
79202;SDS011;68630;42.748;23.278;2023-11-19T03:10:17;4.15;;;2.83;;
79202;SDS011;68630;42.748;23.278;2023-11-19T03:12:45;3.67;;;2.50;;
79202;SDS011;68630;42.748;23.278;2023-11-19T03:15:13;4.62;;;2.67;;
79202;SDS011;68630;42.748;23.278;2023-11-19T03:17:41;5.47;;;3.27;;
79202;SDS011;68630;42.748;23.278;2023-11-19T03:20:10;5.00;;;2.83;;
79202;SDS011;68630;42.748;23.278;2023-11-19T03:22:41;3.98;;;2.80;;
79202;SDS011;68630;42.748;23.278;2023-11-19T03:25:09;3.70;;;2.35;;
79202;SDS011;68630;42.748;23.278;2023-11-19T03:27:38;5.08;;;2.65;;
79202;SDS011;68630;42.748;23.278;2023-11-19T03:30:13;4.78;;;2.95;;
79202;SDS011;68630;42.748;23.278;2023-11-19T03:32:37;3.22;;;2.37;;
79202;SDS011;68630;42.748;23.278;2023-11-19T03:35:05;3.65;;;2.58;;
79202;SDS011;68630;42.748;23.278;2023-11-19T03:37:34;5.03;;;3.00;;
79202;SDS011;68630;42.748;23.278;2023-11-19T03:40:02;5.08;;;2.95;;
79202;SDS011;68630;42.748;23.278;2023-11-19T03:42:30;5.20;;;3.30;;
79202;SDS011;68630;42.748;23.278;2023-11-19T03:44:57;4.12;;;2.85;;
79202;SDS011;68630;42.748;23.278;2023-11-19T03:47:25;7.45;;;2.58;;
79202;SDS011;68630;42.748;23.278;2023-11-19T03:49:53;5.03;;;2.83;;
79202;SDS011;68630;42.748;23.278;2023-11-19T03:52:21;5.22;;;2.80;;
79202;SDS011;68630;42.748;23.278;2023-11-19T03:54:49;4.58;;;3.00;;
79202;SDS011;68630;42.748;23.278;2023-11-19T03:57:16;6.17;;;2.60;;
79202;SDS011;68630;42.748;23.278;2023-11-19T03:59:44;5.17;;;3.05;;
79202;SDS011;68630;42.748;23.278;2023-11-19T04:02:11;4.10;;;3.00;;
79202;SDS011;68630;42.748;23.278;2023-11-19T04:04:39;5.67;;;3.17;;
79202;SDS011;68630;42.748;23.278;2023-11-19T04:07:07;4.90;;;3.05;;
79202;SDS011;68630;42.748;23.278;2023-11-19T04:09:35;4.62;;;2.80;;
79202;SDS011;68630;42.748;23.278;2023-11-19T04:12:07;5.72;;;3.47;;
79202;SDS011;68630;42.748;23.278;2023-11-19T04:14:36;5.12;;;3.40;;
79202;SDS011;68630;42.748;23.278;2023-11-19T04:17:03;4.92;;;3.47;;
79202;SDS011;68630;42.748;23.278;2023-11-19T04:19:31;4.92;;;2.95;;
79202;SDS011;68630;42.748;23.278;2023-11-19T04:21:59;5.25;;;3.25;;
79202;SDS011;68630;42.748;23.278;2023-11-19T04:24:27;4.80;;;3.22;;
79202;SDS011;68630;42.748;23.278;2023-11-19T04:26:55;5.90;;;3.67;;
79202;SDS011;68630;42.748;23.278;2023-11-19T04:29:23;5.95;;;3.42;;
79202;SDS011;68630;42.748;23.278;2023-11-19T04:31:50;5.08;;;2.80;;
79202;SDS011;68630;42.748;23.278;2023-11-19T04:34:18;6.47;;;3.60;;
79202;SDS011;68630;42.748;23.278;2023-11-19T04:36:46;6.33;;;3.42;;
79202;SDS011;68630;42.748;23.278;2023-11-19T04:39:14;5.22;;;3.72;;
79202;SDS011;68630;42.748;23.278;2023-11-19T04:41:47;6.67;;;3.52;;
79202;SDS011;68630;42.748;23.278;2023-11-19T04:44:15;7.72;;;3.75;;
79202;SDS011;68630;42.748;23.278;2023-11-19T04:46:43;5.28;;;3.52;;
79202;SDS011;68630;42.748;23.278;2023-11-19T04:49:11;4.65;;;3.02;;
79202;SDS011;68630;42.748;23.278;2023-11-19T04:51:44;3.60;;;2.92;;
79202;SDS011;68630;42.748;23.278;2023-11-19T04:54:16;5.33;;;2.85;;
79202;SDS011;68630;42.748;23.278;2023-11-19T04:56:47;5.08;;;3.17;;
79202;SDS011;68630;42.748;23.278;2023-11-19T04:59:15;4.30;;;3.20;;
79202;SDS011;68630;42.748;23.278;2023-11-19T05:01:46;4.80;;;3.40;;
79202;SDS011;68630;42.748;23.278;2023-11-19T05:04:14;4.45;;;2.98;;
79202;SDS011;68630;42.748;23.278;2023-11-19T05:06:44;5.20;;;3.60;;
79202;SDS011;68630;42.748;23.278;2023-11-19T05:09:11;5.97;;;2.83;;
79202;SDS011;68630;42.748;23.278;2023-11-19T05:11:39;6.15;;;3.83;;
79202;SDS011;68630;42.748;23.278;2023-11-19T05:14:07;5.95;;;3.33;;
79202;SDS011;68630;42.748;23.278;2023-11-19T05:16:35;4.78;;;3.35;;
79202;SDS011;68630;42.748;23.278;2023-11-19T05:19:04;7.62;;;3.47;;
79202;SDS011;68630;42.748;23.278;2023-11-19T05:21:32;6.17;;;3.65;;
79202;SDS011;68630;42.748;23.278;2023-11-19T05:24:06;6.05;;;3.30;;
79202;SDS011;68630;42.748;23.278;2023-11-19T05:26:33;5.75;;;3.37;;
79202;SDS011;68630;42.748;23.278;2023-11-19T05:29:01;6.58;;;3.62;;
79202;SDS011;68630;42.748;23.278;2023-11-19T05:31:30;5.67;;;2.87;;
79202;SDS011;68630;42.748;23.278;2023-11-19T05:33:58;5.62;;;3.60;;
79202;SDS011;68630;42.748;23.278;2023-11-19T05:36:25;6.10;;;3.92;;
79202;SDS011;68630;42.748;23.278;2023-11-19T05:38:54;6.97;;;3.17;;
79202;SDS011;68630;42.748;23.278;2023-11-19T05:41:22;6.47;;;4.40;;
79202;SDS011;68630;42.748;23.278;2023-11-19T05:43:50;7.15;;;3.60;;
79202;SDS011;68630;42.748;23.278;2023-11-19T05:46:17;5.40;;;3.72;;
79202;SDS011;68630;42.748;23.278;2023-11-19T05:48:46;7.20;;;3.85;;
79202;SDS011;68630;42.748;23.278;2023-11-19T05:51:14;6.30;;;3.10;;
79202;SDS011;68630;42.748;23.278;2023-11-19T05:53:42;6.35;;;3.72;;
79202;SDS011;68630;42.748;23.278;2023-11-19T05:56:11;5.95;;;4.00;;
79202;SDS011;68630;42.748;23.278;2023-11-19T05:58:40;6.97;;;3.92;;
79202;SDS011;68630;42.748;23.278;2023-11-19T06:01:09;6.35;;;3.40;;
79202;SDS011;68630;42.748;23.278;2023-11-19T06:03:37;6.33;;;3.75;;
79202;SDS011;68630;42.748;23.278;2023-11-19T06:06:05;7.58;;;3.58;;
79202;SDS011;68630;42.748;23.278;2023-11-19T06:08:33;5.92;;;3.52;;
79202;SDS011;68630;42.748;23.278;2023-11-19T06:11:01;6.15;;;3.65;;
79202;SDS011;68630;42.748;23.278;2023-11-19T06:13:28;5.92;;;3.65;;
79202;SDS011;68630;42.748;23.278;2023-11-19T06:15:56;6.67;;;3.70;;
79202;SDS011;68630;42.748;23.278;2023-11-19T06:18:24;6.53;;;3.45;;
79202;SDS011;68630;42.748;23.278;2023-11-19T06:20:53;7.62;;;3.98;;
79202;SDS011;68630;42.748;23.278;2023-11-19T06:23:20;5.72;;;3.58;;
79202;SDS011;68630;42.748;23.278;2023-11-19T06:25:48;5.78;;;3.62;;
79202;SDS011;68630;42.748;23.278;2023-11-19T06:28:16;8.30;;;3.77;;
79202;SDS011;68630;42.748;23.278;2023-11-19T06:30:43;5.67;;;3.87;;
79202;SDS011;68630;42.748;23.278;2023-11-19T06:33:14;8.90;;;4.12;;
79202;SDS011;68630;42.748;23.278;2023-11-19T06:35:42;5.37;;;3.60;;
79202;SDS011;68630;42.748;23.278;2023-11-19T06:38:10;5.30;;;3.62;;
79202;SDS011;68630;42.748;23.278;2023-11-19T06:40:37;7.12;;;4.00;;
79202;SDS011;68630;42.748;23.278;2023-11-19T06:43:06;8.05;;;4.03;;
79202;SDS011;68630;42.748;23.278;2023-11-19T06:45:36;8.73;;;4.25;;
79202;SDS011;68630;42.748;23.278;2023-11-19T06:48:04;4.70;;;3.17;;
79202;SDS011;68630;42.748;23.278;2023-11-19T06:50:32;6.50;;;3.58;;
79202;SDS011;68630;42.748;23.278;2023-11-19T06:53:00;5.78;;;3.02;;
79202;SDS011;68630;42.748;23.278;2023-11-19T06:55:28;5.80;;;3.42;;
79202;SDS011;68630;42.748;23.278;2023-11-19T06:57:56;6.25;;;3.98;;
79202;SDS011;68630;42.748;23.278;2023-11-19T07:00:25;9.85;;;4.05;;
79202;SDS011;68630;42.748;23.278;2023-11-19T07:02:53;7.70;;;3.95;;
79202;SDS011;68630;42.748;23.278;2023-11-19T07:05:21;6.95;;;3.75;;
79202;SDS011;68630;42.748;23.278;2023-11-19T07:07:49;6.33;;;4.12;;
79202;SDS011;68630;42.748;23.278;2023-11-19T07:10:19;6.47;;;3.05;;
79202;SDS011;68630;42.748;23.278;2023-11-19T07:12:47;5.97;;;3.62;;
79202;SDS011;68630;42.748;23.278;2023-11-19T07:15:16;5.97;;;3.67;;
79202;SDS011;68630;42.748;23.278;2023-11-19T07:17:44;5.67;;;3.75;;
79202;SDS011;68630;42.748;23.278;2023-11-19T07:20:11;6.87;;;3.47;;
79202;SDS011;68630;42.748;23.278;2023-11-19T07:22:43;5.15;;;3.27;;
79202;SDS011;68630;42.748;23.278;2023-11-19T07:25:14;7.20;;;4.05;;
79202;SDS011;68630;42.748;23.278;2023-11-19T07:27:43;6.00;;;3.40;;
79202;SDS011;68630;42.748;23.278;2023-11-19T07:30:12;4.62;;;2.85;;
79202;SDS011;68630;42.748;23.278;2023-11-19T07:32:40;6.60;;;4.25;;
79202;SDS011;68630;42.748;23.278;2023-11-19T07:35:08;7.80;;;3.47;;
79202;SDS011;68630;42.748;23.278;2023-11-19T07:37:37;6.90;;;3.92;;
79202;SDS011;68630;42.748;23.278;2023-11-19T07:40:06;5.70;;;3.55;;
79202;SDS011;68630;42.748;23.278;2023-11-19T07:42:34;30.35;;;18.42;;
79202;SDS011;68630;42.748;23.278;2023-11-19T07:45:03;12.10;;;4.40;;
79202;SDS011;68630;42.748;23.278;2023-11-19T07:47:32;6.40;;;3.87;;
79202;SDS011;68630;42.748;23.278;2023-11-19T07:50:00;8.75;;;3.55;;
79202;SDS011;68630;42.748;23.278;2023-11-19T07:52:29;8.25;;;4.03;;
79202;SDS011;68630;42.748;23.278;2023-11-19T07:54:57;8.63;;;4.60;;
79202;SDS011;68630;42.748;23.278;2023-11-19T07:57:24;9.40;;;3.85;;
79202;SDS011;68630;42.748;23.278;2023-11-19T07:59:54;6.62;;;3.50;;
79202;SDS011;68630;42.748;23.278;2023-11-19T08:02:22;7.05;;;4.00;;
79202;SDS011;68630;42.748;23.278;2023-11-19T08:04:50;5.15;;;3.17;;
79202;SDS011;68630;42.748;23.278;2023-11-19T08:07:20;6.37;;;3.58;;
79202;SDS011;68630;42.748;23.278;2023-11-19T08:09:49;6.28;;;3.52;;
79202;SDS011;68630;42.748;23.278;2023-11-19T08:12:17;6.60;;;3.85;;
79202;SDS011;68630;42.748;23.278;2023-11-19T08:14:45;6.58;;;3.52;;
79202;SDS011;68630;42.748;23.278;2023-11-19T08:17:13;6.37;;;3.90;;
79202;SDS011;68630;42.748;23.278;2023-11-19T08:19:41;8.45;;;5.03;;
79202;SDS011;68630;42.748;23.278;2023-11-19T08:22:09;8.30;;;4.15;;
79202;SDS011;68630;42.748;23.278;2023-11-19T08:24:37;8.00;;;4.35;;
79202;SDS011;68630;42.748;23.278;2023-11-19T08:27:04;6.42;;;3.92;;
79202;SDS011;68630;42.748;23.278;2023-11-19T08:29:32;9.40;;;3.75;;
79202;SDS011;68630;42.748;23.278;2023-11-19T08:32:03;5.72;;;3.75;;
79202;SDS011;68630;42.748;23.278;2023-11-19T08:34:32;6.58;;;3.87;;
79202;SDS011;68630;42.748;23.278;2023-11-19T08:37:01;7.70;;;3.42;;
79202;SDS011;68630;42.748;23.278;2023-11-19T08:39:28;6.58;;;4.30;;
79202;SDS011;68630;42.748;23.278;2023-11-19T08:41:56;8.50;;;4.33;;
79202;SDS011;68630;42.748;23.278;2023-11-19T08:44:23;6.22;;;3.92;;
79202;SDS011;68630;42.748;23.278;2023-11-19T08:46:51;5.70;;;3.92;;
79202;SDS011;68630;42.748;23.278;2023-11-19T08:49:19;6.42;;;4.10;;
79202;SDS011;68630;42.748;23.278;2023-11-19T08:51:48;7.97;;;3.83;;
79202;SDS011;68630;42.748;23.278;2023-11-19T08:54:15;5.35;;;3.75;;
79202;SDS011;68630;42.748;23.278;2023-11-19T08:56:45;6.28;;;3.62;;
79202;SDS011;68630;42.748;23.278;2023-11-19T08:59:12;6.78;;;3.95;;
79202;SDS011;68630;42.748;23.278;2023-11-19T09:01:40;5.62;;;3.45;;
79202;SDS011;68630;42.748;23.278;2023-11-19T09:04:08;8.10;;;3.83;;
79202;SDS011;68630;42.748;23.278;2023-11-19T09:06:36;5.58;;;3.50;;
79202;SDS011;68630;42.748;23.278;2023-11-19T09:09:05;6.03;;;3.72;;
79202;SDS011;68630;42.748;23.278;2023-11-19T09:11:33;6.17;;;3.85;;
79202;SDS011;68630;42.748;23.278;2023-11-19T09:14:00;7.05;;;3.52;;
79202;SDS011;68630;42.748;23.278;2023-11-19T09:16:28;9.20;;;3.60;;
79202;SDS011;68630;42.748;23.278;2023-11-19T09:18:55;5.47;;;3.60;;
79202;SDS011;68630;42.748;23.278;2023-11-19T09:21:25;6.40;;;3.55;;
79202;SDS011;68630;42.748;23.278;2023-11-19T09:23:53;6.08;;;3.60;;
79202;SDS011;68630;42.748;23.278;2023-11-19T09:26:20;8.90;;;3.83;;
79202;SDS011;68630;42.748;23.278;2023-11-19T09:28:48;5.47;;;3.17;;
79202;SDS011;68630;42.748;23.278;2023-11-19T09:31:16;5.60;;;3.22;;
79202;SDS011;68630;42.748;23.278;2023-11-19T09:33:44;6.03;;;3.50;;
79202;SDS011;68630;42.748;23.278;2023-11-19T09:36:12;8.23;;;4.37;;
79202;SDS011;68630;42.748;23.278;2023-11-19T09:38:44;5.55;;;3.52;;
79202;SDS011;68630;42.748;23.278;2023-11-19T09:41:12;8.30;;;3.60;;
79202;SDS011;68630;42.748;23.278;2023-11-19T09:43:40;6.10;;;3.20;;
79202;SDS011;68630;42.748;23.278;2023-11-19T09:46:13;6.05;;;3.70;;
79202;SDS011;68630;42.748;23.278;2023-11-19T09:48:37;5.05;;;3.15;;
79202;SDS011;68630;42.748;23.278;2023-11-19T09:51:07;7.28;;;3.40;;
79202;SDS011;68630;42.748;23.278;2023-11-19T09:53:35;9.28;;;3.12;;
79202;SDS011;68630;42.748;23.278;2023-11-19T09:56:04;4.62;;;3.12;;
79202;SDS011;68630;42.748;23.278;2023-11-19T09:58:33;3.72;;;2.50;;
79202;SDS011;68630;42.748;23.278;2023-11-19T10:01:01;5.25;;;2.60;;
79202;SDS011;68630;42.748;23.278;2023-11-19T10:03:32;4.67;;;2.75;;
79202;SDS011;68630;42.748;23.278;2023-11-19T10:06:02;4.97;;;2.87;;
79202;SDS011;68630;42.748;23.278;2023-11-19T10:08:30;4.72;;;2.87;;
79202;SDS011;68630;42.748;23.278;2023-11-19T10:10:58;3.92;;;2.98;;
79202;SDS011;68630;42.748;23.278;2023-11-19T10:13:28;4.70;;;3.17;;
79202;SDS011;68630;42.748;23.278;2023-11-19T10:15:56;5.20;;;3.33;;
79202;SDS011;68630;42.748;23.278;2023-11-19T10:18:25;4.10;;;2.58;;
79202;SDS011;68630;42.748;23.278;2023-11-19T10:20:55;10.03;;;3.45;;
79202;SDS011;68630;42.748;23.278;2023-11-19T10:23:23;5.22;;;3.20;;
79202;SDS011;68630;42.748;23.278;2023-11-19T10:25:52;4.75;;;2.90;;
79202;SDS011;68630;42.748;23.278;2023-11-19T10:28:20;5.87;;;3.75;;
79202;SDS011;68630;42.748;23.278;2023-11-19T10:30:48;5.55;;;3.50;;
79202;SDS011;68630;42.748;23.278;2023-11-19T10:33:15;5.67;;;3.30;;
79202;SDS011;68630;42.748;23.278;2023-11-19T10:35:51;5.03;;;3.22;;
79202;SDS011;68630;42.748;23.278;2023-11-19T10:38:20;3.00;;;2.37;;
79202;SDS011;68630;42.748;23.278;2023-11-19T10:40:48;5.03;;;3.10;;
79202;SDS011;68630;42.748;23.278;2023-11-19T10:43:17;5.70;;;3.27;;
79202;SDS011;68630;42.748;23.278;2023-11-19T10:45:45;5.15;;;3.10;;
79202;SDS011;68630;42.748;23.278;2023-11-19T10:48:12;4.85;;;3.30;;
79202;SDS011;68630;42.748;23.278;2023-11-19T10:50:41;5.20;;;3.20;;
79202;SDS011;68630;42.748;23.278;2023-11-19T10:53:12;5.35;;;3.70;;
79202;SDS011;68630;42.748;23.278;2023-11-19T10:55:42;4.40;;;3.08;;
79202;SDS011;68630;42.748;23.278;2023-11-19T10:58:12;6.58;;;3.20;;
79202;SDS011;68630;42.748;23.278;2023-11-19T11:00:52;8.25;;;2.80;;
79202;SDS011;68630;42.748;23.278;2023-11-19T11:03:25;5.28;;;3.17;;
79202;SDS011;68630;42.748;23.278;2023-11-19T11:05:55;4.25;;;3.00;;
79202;SDS011;68630;42.748;23.278;2023-11-19T11:08:23;4.08;;;2.87;;
79202;SDS011;68630;42.748;23.278;2023-11-19T11:10:55;5.97;;;3.20;;
79202;SDS011;68630;42.748;23.278;2023-11-19T11:13:27;8.23;;;3.10;;
79202;SDS011;68630;42.748;23.278;2023-11-19T11:15:55;6.45;;;3.58;;
79202;SDS011;68630;42.748;23.278;2023-11-19T11:18:27;3.55;;;2.77;;
79202;SDS011;68630;42.748;23.278;2023-11-19T11:21:00;7.60;;;2.98;;
79202;SDS011;68630;42.748;23.278;2023-11-19T11:28:56;3.05;;;2.35;;
79202;SDS011;68630;42.748;23.278;2023-11-19T11:40:01;5.60;;;3.22;;
79202;SDS011;68630;42.748;23.278;2023-11-19T11:42:33;6.08;;;2.98;;
79202;SDS011;68630;42.748;23.278;2023-11-19T11:45:04;5.97;;;3.00;;
79202;SDS011;68630;42.748;23.278;2023-11-19T11:50:16;5.47;;;2.95;;
79202;SDS011;68630;42.748;23.278;2023-11-19T11:53:27;6.50;;;3.15;;
79202;SDS011;68630;42.748;23.278;2023-11-19T11:55:37;4.80;;;2.70;;
79202;SDS011;68630;42.748;23.278;2023-11-19T11:58:09;7.08;;;3.17;;
79202;SDS011;68630;42.748;23.278;2023-11-19T12:00:38;3.83;;;2.80;;
79202;SDS011;68630;42.748;23.278;2023-11-19T12:03:07;2.95;;;2.00;;
79202;SDS011;68630;42.748;23.278;2023-11-19T12:05:48;3.55;;;2.10;;
79202;SDS011;68630;42.748;23.278;2023-11-19T12:08:12;5.42;;;2.90;;
79202;SDS011;68630;42.748;23.278;2023-11-19T12:10:45;4.37;;;2.83;;
79202;SDS011;68630;42.748;23.278;2023-11-19T12:13:14;4.90;;;3.08;;
79202;SDS011;68630;42.748;23.278;2023-11-19T12:18:27;7.72;;;2.77;;
79202;SDS011;68630;42.748;23.278;2023-11-19T12:20:56;6.37;;;3.30;;
79202;SDS011;68630;42.748;23.278;2023-11-19T12:23:29;4.97;;;3.22;;
79202;SDS011;68630;42.748;23.278;2023-11-19T12:25:57;4.75;;;3.00;;
79202;SDS011;68630;42.748;23.278;2023-11-19T12:28:25;4.12;;;2.65;;
79202;SDS011;68630;42.748;23.278;2023-11-19T12:30:53;5.20;;;2.90;;
79202;SDS011;68630;42.748;23.278;2023-11-19T12:33:22;5.55;;;3.10;;
79202;SDS011;68630;42.748;23.278;2023-11-19T12:35:50;5.60;;;3.20;;
79202;SDS011;68630;42.748;23.278;2023-11-19T12:38:24;4.03;;;3.02;;
79202;SDS011;68630;42.748;23.278;2023-11-19T12:41:08;7.33;;;3.47;;
79202;SDS011;68630;42.748;23.278;2023-11-19T12:43:37;5.80;;;3.52;;
79202;SDS011;68630;42.748;23.278;2023-11-19T12:48:49;5.37;;;2.75;;
79202;SDS011;68630;42.748;23.278;2023-11-19T12:51:18;5.00;;;2.80;;
79202;SDS011;68630;42.748;23.278;2023-11-19T12:53:52;12.58;;;8.98;;
79202;SDS011;68630;42.748;23.278;2023-11-19T12:56:20;5.17;;;2.85;;
79202;SDS011;68630;42.748;23.278;2023-11-19T12:58:51;5.08;;;3.42;;
79202;SDS011;68630;42.748;23.278;2023-11-19T13:01:20;7.90;;;3.80;;
79202;SDS011;68630;42.748;23.278;2023-11-19T13:03:48;11.12;;;5.10;;
79202;SDS011;68630;42.748;23.278;2023-11-19T13:06:16;7.72;;;4.70;;
79202;SDS011;68630;42.748;23.278;2023-11-19T13:08:47;8.60;;;3.77;;
79202;SDS011;68630;42.748;23.278;2023-11-19T13:11:29;8.23;;;3.72;;
79202;SDS011;68630;42.748;23.278;2023-11-19T13:14:04;8.03;;;4.70;;
79202;SDS011;68630;42.748;23.278;2023-11-19T13:16:35;6.83;;;3.87;;
79202;SDS011;68630;42.748;23.278;2023-11-19T13:19:04;7.17;;;3.98;;
79202;SDS011;68630;42.748;23.278;2023-11-19T13:21:31;8.13;;;3.92;;
79202;SDS011;68630;42.748;23.278;2023-11-19T13:23:59;7.87;;;4.25;;
79202;SDS011;68630;42.748;23.278;2023-11-19T13:26:27;7.05;;;3.85;;
79202;SDS011;68630;42.748;23.278;2023-11-19T13:28:54;7.42;;;4.25;;
79202;SDS011;68630;42.748;23.278;2023-11-19T13:31:22;6.50;;;3.65;;
79202;SDS011;68630;42.748;23.278;2023-11-19T13:33:49;6.08;;;3.42;;
79202;SDS011;68630;42.748;23.278;2023-11-19T13:36:17;9.88;;;3.90;;
79202;SDS011;68630;42.748;23.278;2023-11-19T13:38:45;10.72;;;3.65;;
79202;SDS011;68630;42.748;23.278;2023-11-19T13:41:13;10.63;;;4.03;;
79202;SDS011;68630;42.748;23.278;2023-11-19T13:43:40;6.60;;;3.90;;
79202;SDS011;68630;42.748;23.278;2023-11-19T13:46:08;12.93;;;3.85;;
79202;SDS011;68630;42.748;23.278;2023-11-19T13:48:38;7.85;;;4.05;;
79202;SDS011;68630;42.748;23.278;2023-11-19T13:51:06;6.72;;;3.85;;
79202;SDS011;68630;42.748;23.278;2023-11-19T13:53:35;6.80;;;3.60;;
79202;SDS011;68630;42.748;23.278;2023-11-19T13:56:03;8.38;;;3.22;;
79202;SDS011;68630;42.748;23.278;2023-11-19T13:58:31;8.70;;;3.52;;
79202;SDS011;68630;42.748;23.278;2023-11-19T14:00:58;6.42;;;3.42;;
79202;SDS011;68630;42.748;23.278;2023-11-19T14:03:27;7.20;;;3.35;;
79202;SDS011;68630;42.748;23.278;2023-11-19T14:05:55;6.53;;;3.67;;
79202;SDS011;68630;42.748;23.278;2023-11-19T14:08:23;5.87;;;3.33;;
79202;SDS011;68630;42.748;23.278;2023-11-19T14:10:51;6.95;;;3.25;;
79202;SDS011;68630;42.748;23.278;2023-11-19T14:13:21;6.80;;;3.45;;
79202;SDS011;68630;42.748;23.278;2023-11-19T14:15:50;7.97;;;4.40;;
79202;SDS011;68630;42.748;23.278;2023-11-19T14:18:17;9.80;;;4.62;;
79202;SDS011;68630;42.748;23.278;2023-11-19T14:20:45;7.60;;;4.20;;
79202;SDS011;68630;42.748;23.278;2023-11-19T14:23:13;10.35;;;4.90;;
79202;SDS011;68630;42.748;23.278;2023-11-19T14:25:40;15.32;;;4.90;;
79202;SDS011;68630;42.748;23.278;2023-11-19T14:28:09;8.00;;;4.37;;
79202;SDS011;68630;42.748;23.278;2023-11-19T14:30:36;8.08;;;4.47;;
79202;SDS011;68630;42.748;23.278;2023-11-19T14:33:04;9.05;;;4.58;;
79202;SDS011;68630;42.748;23.278;2023-11-19T14:35:32;8.33;;;4.53;;
79202;SDS011;68630;42.748;23.278;2023-11-19T14:38:00;10.23;;;4.92;;
79202;SDS011;68630;42.748;23.278;2023-11-19T14:40:29;9.90;;;6.05;;
79202;SDS011;68630;42.748;23.278;2023-11-19T14:42:57;10.68;;;6.20;;
79202;SDS011;68630;42.748;23.278;2023-11-19T14:45:24;10.98;;;6.28;;
79202;SDS011;68630;42.748;23.278;2023-11-19T14:47:52;9.38;;;5.87;;
79202;SDS011;68630;42.748;23.278;2023-11-19T14:50:20;9.85;;;5.40;;
79202;SDS011;68630;42.748;23.278;2023-11-19T14:52:47;8.03;;;4.75;;
79202;SDS011;68630;42.748;23.278;2023-11-19T14:55:15;12.37;;;4.60;;
79202;SDS011;68630;42.748;23.278;2023-11-19T14:57:43;13.68;;;5.58;;
79202;SDS011;68630;42.748;23.278;2023-11-19T15:00:10;32.35;;;10.13;;
79202;SDS011;68630;42.748;23.278;2023-11-19T15:02:41;35.13;;;11.22;;
79202;SDS011;68630;42.748;23.278;2023-11-19T15:05:09;27.37;;;9.38;;